createdAt,value
2019-03-30T00:00:31.974Z,7.37
2019-03-30T00:03:04.771Z,7.45
2019-03-30T00:05:37.078Z,7.78
2019-03-30T00:08:09.482Z,6.90
2019-03-30T00:10:41.465Z,7.80
2019-03-30T00:13:13.501Z,7.58
2019-03-30T00:15:45.397Z,7.62
2019-03-30T00:18:17.401Z,7.10
2019-03-30T00:20:49.752Z,7.87
2019-03-30T00:23:21.661Z,7.45
2019-03-30T00:25:53.969Z,7.30
2019-03-30T00:28:26.228Z,8.30
2019-03-30T00:30:58.574Z,6.85
2019-03-30T00:33:30.495Z,7.78
2019-03-30T00:36:02.396Z,7.65
2019-03-30T00:38:34.799Z,7.90
2019-03-30T00:41:07.733Z,7.83
2019-03-30T00:43:39.723Z,7.95
2019-03-30T00:46:11.805Z,7.55
2019-03-30T00:48:43.649Z,7.33
2019-03-30T00:51:15.476Z,7.70
2019-03-30T00:53:47.471Z,7.30
2019-03-30T00:56:19.536Z,8.28
2019-03-30T00:58:51.873Z,7.87
2019-03-30T01:01:23.939Z,8.20
2019-03-30T01:03:57.184Z,7.03
2019-03-30T01:06:29.353Z,7.20
2019-03-30T01:09:06.103Z,7.60
2019-03-30T01:11:38.074Z,7.78
2019-03-30T01:14:10.081Z,8.00
2019-03-30T01:16:42.102Z,7.97
2019-03-30T01:19:14.232Z,8.73
2019-03-30T01:21:46.473Z,7.85
2019-03-30T01:24:18.479Z,7.60
2019-03-30T01:26:50.376Z,7.83
2019-03-30T01:29:22.390Z,8.35
2019-03-30T01:31:54.368Z,8.13
2019-03-30T01:34:26.282Z,8.48
2019-03-30T01:36:59.793Z,7.53
2019-03-30T01:39:32.079Z,8.05
2019-03-30T01:42:04.501Z,7.58
2019-03-30T01:44:36.611Z,7.70
2019-03-30T01:47:10.194Z,8.25
2019-03-30T01:49:42.509Z,7.55
2019-03-30T01:52:14.517Z,7.37
2019-03-30T01:54:47.202Z,8.05
2019-03-30T01:57:19.445Z,7.35
2019-03-30T01:59:51.404Z,7.40
2019-03-30T02:02:23.676Z,6.97
2019-03-30T02:04:55.947Z,7.78
2019-03-30T02:07:27.849Z,7.80
2019-03-30T02:09:59.953Z,7.85
2019-03-30T02:12:31.952Z,7.25
2019-03-30T02:15:04.254Z,7.40
2019-03-30T02:17:36.715Z,7.30
2019-03-30T02:20:11.942Z,7.50
2019-03-30T02:22:43.904Z,6.58
2019-03-30T02:25:15.914Z,6.37
2019-03-30T02:27:47.980Z,7.15
2019-03-30T02:30:20.006Z,7.15
2019-03-30T02:32:51.962Z,7.05
2019-03-30T02:35:26.497Z,6.95
2019-03-30T02:37:58.113Z,7.15
2019-03-30T02:40:30.190Z,6.83
2019-03-30T02:43:02.623Z,6.80
2019-03-30T02:45:35.123Z,6.90
2019-03-30T02:48:07.088Z,6.62
2019-03-30T02:50:49.278Z,7.08
2019-03-30T02:53:12.698Z,6.97
2019-03-30T02:55:44.627Z,7.10
2019-03-30T02:58:16.881Z,6.62
2019-03-30T03:00:49.350Z,7.17
2019-03-30T03:03:21.378Z,6.60
2019-03-30T03:05:53.379Z,6.80
2019-03-30T03:08:25.673Z,6.40
2019-03-30T03:10:57.672Z,6.97
2019-03-30T03:13:29.988Z,7.25
2019-03-30T03:16:02.076Z,7.12
2019-03-30T03:18:33.963Z,6.83
2019-03-30T03:21:08.583Z,7.53
2019-03-30T03:23:40.767Z,6.83
2019-03-30T03:26:13.212Z,6.55
2019-03-30T03:28:45.197Z,7.17
2019-03-30T03:31:17.207Z,6.58
2019-03-30T03:33:49.040Z,7.33
2019-03-30T03:36:20.947Z,6.87
2019-03-30T03:38:53.348Z,7.55
2019-03-30T03:41:25.690Z,7.75
2019-03-30T03:43:57.991Z,8.65
2019-03-30T03:46:30.397Z,8.35
2019-03-30T03:49:02.356Z,7.35
2019-03-30T03:51:35.414Z,7.67
2019-03-30T03:54:08.140Z,9.05
2019-03-30T03:56:42.059Z,8.53
2019-03-30T03:59:15.005Z,8.10
2019-03-30T04:01:49.285Z,7.67
2019-03-30T04:04:25.136Z,7.83
2019-03-30T04:07:01.717Z,7.30
2019-03-30T04:09:36.687Z,7.78
2019-03-30T04:12:11.779Z,7.70
2019-03-30T04:14:50.011Z,7.05
2019-03-30T04:17:22.018Z,7.42
2019-03-30T04:19:53.985Z,7.62
2019-03-30T04:22:27.042Z,7.20
2019-03-30T04:24:58.897Z,8.73
2019-03-30T04:27:31.251Z,7.75
2019-03-30T04:30:03.399Z,7.75
2019-03-30T04:32:35.309Z,7.72
2019-03-30T04:35:07.658Z,7.10
2019-03-30T04:37:39.775Z,7.37
2019-03-30T04:40:11.845Z,7.92
2019-03-30T04:42:44.281Z,8.18
2019-03-30T04:45:16.359Z,8.00
2019-03-30T04:47:48.802Z,7.50
2019-03-30T04:50:22.296Z,8.10
2019-03-30T04:52:54.341Z,7.35
2019-03-30T04:55:26.758Z,7.60
2019-03-30T04:57:58.650Z,8.03
2019-03-30T05:00:31.471Z,7.58
2019-03-30T05:03:03.397Z,7.75
2019-03-30T05:05:35.397Z,7.50
2019-03-30T05:08:08.379Z,7.58
2019-03-30T05:10:40.336Z,7.20
2019-03-30T05:13:12.607Z,7.25
2019-03-30T05:15:44.977Z,7.92
2019-03-30T05:18:16.813Z,7.58
2019-03-30T05:20:48.794Z,8.08
2019-03-30T05:23:20.960Z,7.67
2019-03-30T05:25:53.232Z,8.75
2019-03-30T05:28:25.582Z,9.10
2019-03-30T05:30:58.789Z,8.78
2019-03-30T05:33:31.379Z,9.23
2019-03-30T05:36:03.381Z,7.47
2019-03-30T05:38:35.611Z,8.00
2019-03-30T05:41:07.901Z,7.95
2019-03-30T05:43:39.794Z,8.80
2019-03-30T05:46:11.812Z,9.40
2019-03-30T05:48:43.710Z,9.38
2019-03-30T05:51:15.722Z,8.98
2019-03-30T05:53:47.909Z,10.40
2019-03-30T05:56:20.275Z,10.30
2019-03-30T05:58:52.279Z,10.13
2019-03-30T06:01:24.337Z,9.95
2019-03-30T06:03:56.241Z,9.90
2019-03-30T06:06:28.526Z,10.43
2019-03-30T06:09:00.798Z,9.78
2019-03-30T06:11:32.895Z,10.35
2019-03-30T06:14:04.951Z,10.18
2019-03-30T06:16:37.033Z,10.38
2019-03-30T06:19:09.363Z,10.15
2019-03-30T06:21:41.306Z,9.85
2019-03-30T06:24:13.361Z,9.88
2019-03-30T06:26:46.296Z,9.55
2019-03-30T06:29:18.411Z,9.93
2019-03-30T06:31:50.936Z,9.75
2019-03-30T06:34:22.900Z,10.08
2019-03-30T06:36:55.269Z,10.08
2019-03-30T06:39:27.316Z,9.98
2019-03-30T06:41:59.235Z,9.45
2019-03-30T06:44:31.146Z,9.28
2019-03-30T06:47:03.597Z,10.48
2019-03-30T06:49:35.769Z,9.63
2019-03-30T06:52:08.263Z,9.83
2019-03-30T06:54:40.098Z,9.98
2019-03-30T06:57:12.109Z,10.18
2019-03-30T06:59:44.022Z,9.73
2019-03-30T07:02:16.646Z,9.58
2019-03-30T07:04:49.609Z,9.63
2019-03-30T07:07:23.638Z,9.80
2019-03-30T07:09:57.169Z,9.90
2019-03-30T07:12:34.148Z,9.28
2019-03-30T07:15:06.867Z,9.88
2019-03-30T07:17:48.102Z,9.35
2019-03-30T07:20:30.235Z,9.78
2019-03-30T07:23:11.847Z,9.43
2019-03-30T07:25:36.921Z,10.53
2019-03-30T07:28:09.029Z,10.50
2019-03-30T07:30:41.251Z,9.75
2019-03-30T07:33:13.773Z,9.70
2019-03-30T07:35:45.745Z,10.23
2019-03-30T07:38:17.967Z,10.75
2019-03-30T07:40:50.237Z,9.93
2019-03-30T07:43:22.454Z,10.18
2019-03-30T07:45:54.513Z,9.73
2019-03-30T07:48:26.638Z,9.25
2019-03-30T07:50:58.623Z,8.70
2019-03-30T07:53:43.567Z,9.55
2019-03-30T07:56:08.602Z,9.30
2019-03-30T07:58:37.771Z,9.83
2019-03-30T08:01:09.722Z,9.55
2019-03-30T08:03:44.101Z,8.85
2019-03-30T08:06:16.038Z,9.13
2019-03-30T08:08:48.475Z,10.30
2019-03-30T08:11:20.578Z,9.90
2019-03-30T08:13:52.669Z,10.15
2019-03-30T08:16:24.772Z,8.60
2019-03-30T08:18:57.004Z,8.98
2019-03-30T08:21:28.905Z,9.55
2019-03-30T08:24:00.873Z,9.05
2019-03-30T08:26:35.526Z,9.88
2019-03-30T08:29:07.521Z,10.10
2019-03-30T08:31:39.758Z,11.00
2019-03-30T08:34:11.731Z,9.40
2019-03-30T08:36:44.162Z,9.65
2019-03-30T08:39:16.303Z,9.80
2019-03-30T08:41:48.268Z,9.78
2019-03-30T08:44:20.664Z,9.80
2019-03-30T08:46:52.933Z,9.35
2019-03-30T08:49:25.454Z,9.95
2019-03-30T08:51:57.416Z,9.73
2019-03-30T08:54:30.505Z,10.60
2019-03-30T08:57:02.501Z,10.13
2019-03-30T08:59:34.493Z,10.40
2019-03-30T09:02:06.496Z,8.88
2019-03-30T09:04:38.956Z,9.18
2019-03-30T09:07:10.964Z,9.33
2019-03-30T09:09:43.360Z,10.05
2019-03-30T09:12:15.313Z,9.88
2019-03-30T09:14:47.371Z,9.28
2019-03-30T09:17:19.351Z,10.15
2019-03-30T09:19:51.443Z,9.90
2019-03-30T09:22:25.316Z,10.30
2019-03-30T09:24:57.756Z,9.60
2019-03-30T09:27:30.223Z,9.55
2019-03-30T09:30:02.274Z,10.03
2019-03-30T09:32:34.725Z,10.15
2019-03-30T09:35:07.749Z,9.93
2019-03-30T09:37:39.704Z,9.08
2019-03-30T09:40:12.197Z,9.43
2019-03-30T09:42:44.555Z,8.80
2019-03-30T09:45:17.031Z,8.80
2019-03-30T09:47:49.436Z,9.48
2019-03-30T09:50:21.777Z,8.78
2019-03-30T09:53:13.246Z,8.73
2019-03-30T09:55:45.293Z,9.55
2019-03-30T09:58:17.771Z,9.35
2019-03-30T10:00:49.723Z,8.50
2019-03-30T10:03:22.113Z,9.25
2019-03-30T10:05:54.539Z,8.35
2019-03-30T10:08:26.528Z,8.90
2019-03-30T10:10:59.033Z,9.05
2019-03-30T10:13:30.934Z,8.63
2019-03-30T10:16:03.104Z,9.23
2019-03-30T10:18:34.920Z,8.03
2019-03-30T10:21:07.342Z,7.47
2019-03-30T10:23:40.041Z,8.35
2019-03-30T10:26:12.141Z,7.87
2019-03-30T10:28:46.953Z,7.35
2019-03-30T10:31:17.799Z,7.75
2019-03-30T10:33:49.891Z,6.87
2019-03-30T10:36:21.954Z,7.05
2019-03-30T10:38:54.268Z,7.92
2019-03-30T10:41:26.439Z,7.92
2019-03-30T10:44:01.351Z,7.62
2019-03-30T10:46:34.464Z,7.95
2019-03-30T10:49:06.910Z,7.78
2019-03-30T10:51:38.799Z,8.15
2019-03-30T10:54:11.155Z,8.80
2019-03-30T10:56:43.482Z,8.60
2019-03-30T10:59:15.471Z,8.73
2019-03-30T11:01:47.743Z,8.78
2019-03-30T11:04:19.680Z,8.43
2019-03-30T11:06:51.701Z,8.03
2019-03-30T11:09:23.719Z,7.97
2019-03-30T11:11:55.712Z,9.23
2019-03-30T11:14:27.767Z,9.18
2019-03-30T11:16:59.727Z,8.30
2019-03-30T11:19:31.809Z,9.53
2019-03-30T11:22:03.822Z,9.90
2019-03-30T11:24:35.718Z,8.93
2019-03-30T11:27:08.030Z,9.48
2019-03-30T11:29:39.947Z,9.73
2019-03-30T11:32:11.837Z,10.20
2019-03-30T11:34:43.955Z,9.75
2019-03-30T11:37:15.808Z,9.60
2019-03-30T11:39:47.859Z,9.10
2019-03-30T11:42:20.158Z,8.88
2019-03-30T11:44:52.349Z,8.60
2019-03-30T11:47:24.667Z,8.50
2019-03-30T11:49:56.501Z,8.55
2019-03-30T11:52:28.512Z,8.90
2019-03-30T11:55:00.418Z,9.80
2019-03-30T11:57:32.654Z,8.45
2019-03-30T12:00:05.400Z,9.48
2019-03-30T12:02:38.209Z,9.05
2019-03-30T12:05:10.523Z,8.20
2019-03-30T12:07:42.579Z,8.50
2019-03-30T12:10:14.983Z,9.20
2019-03-30T12:12:46.912Z,9.28
2019-03-30T12:15:18.966Z,9.53
2019-03-30T12:17:51.350Z,8.13
2019-03-30T12:20:23.344Z,8.08
2019-03-30T12:22:55.559Z,7.70
2019-03-30T12:25:35.356Z,7.42
2019-03-30T12:28:01.414Z,7.45
2019-03-30T12:30:33.472Z,7.45
2019-03-30T12:33:05.409Z,7.12
2019-03-30T12:35:37.478Z,7.00
2019-03-30T12:38:09.657Z,7.25
2019-03-30T12:40:41.725Z,8.30
2019-03-30T12:43:13.907Z,7.33
2019-03-30T12:45:45.912Z,6.95
2019-03-30T12:48:18.961Z,6.67
2019-03-30T12:50:51.333Z,7.00
2019-03-30T12:53:23.703Z,7.70
2019-03-30T12:55:56.055Z,7.17
2019-03-30T12:58:28.063Z,6.87
2019-03-30T13:01:00.076Z,6.78
2019-03-30T13:03:32.093Z,7.87
2019-03-30T13:06:04.163Z,8.28
2019-03-30T13:08:36.473Z,8.48
2019-03-30T13:11:08.396Z,8.13
2019-03-30T13:13:40.471Z,7.40
2019-03-30T13:16:12.790Z,8.08
2019-03-30T13:18:44.990Z,7.72
2019-03-30T13:21:17.956Z,8.10
2019-03-30T13:23:50.016Z,8.20
2019-03-30T13:26:21.850Z,7.15
2019-03-30T13:28:53.931Z,7.45
2019-03-30T13:31:25.910Z,7.75
2019-03-30T13:33:58.306Z,7.92
2019-03-30T13:36:45.888Z,8.38
2019-03-30T13:39:17.819Z,8.08
2019-03-30T13:41:49.642Z,8.40
2019-03-30T13:44:22.161Z,7.83
2019-03-30T13:46:54.232Z,7.92
2019-03-30T13:49:29.654Z,7.55
2019-03-30T13:52:00.541Z,8.05
2019-03-30T13:54:32.564Z,7.20
2019-03-30T13:57:04.568Z,7.70
2019-03-30T13:59:36.589Z,7.45
2019-03-30T14:02:08.636Z,7.42
2019-03-30T14:04:40.559Z,6.92
2019-03-30T14:07:13.555Z,6.65
2019-03-30T14:09:45.457Z,7.50
2019-03-30T14:12:17.433Z,6.72
2019-03-30T14:14:49.833Z,6.45
2019-03-30T14:17:22.418Z,6.87
2019-03-30T14:19:54.417Z,6.15
2019-03-30T14:22:26.570Z,6.28
2019-03-30T14:24:58.684Z,6.20
2019-03-30T14:27:30.681Z,6.05
2019-03-30T14:30:02.778Z,6.22
2019-03-30T14:32:34.776Z,6.53
2019-03-30T14:35:07.261Z,6.40
2019-03-30T14:37:39.315Z,6.78
2019-03-30T14:40:12.109Z,6.37
2019-03-30T14:42:44.023Z,5.28
2019-03-30T14:45:16.328Z,5.53
2019-03-30T14:47:48.238Z,5.62
2019-03-30T14:50:20.248Z,5.37
2019-03-30T14:52:52.228Z,5.53
2019-03-30T14:55:24.605Z,5.05
2019-03-30T14:57:56.649Z,4.92
2019-03-30T15:00:28.832Z,5.30
2019-03-30T15:03:00.907Z,5.65
2019-03-30T15:05:32.883Z,4.67
2019-03-30T15:08:05.207Z,4.90
2019-03-30T15:10:37.309Z,5.22
2019-03-30T15:13:09.641Z,4.95
2019-03-30T15:15:42.197Z,4.97
2019-03-30T15:18:14.487Z,4.58
2019-03-30T15:20:46.861Z,4.67
2019-03-30T15:23:18.857Z,4.75
2019-03-30T15:25:50.817Z,4.85
2019-03-30T15:28:23.177Z,4.85
2019-03-30T15:30:55.118Z,4.60
2019-03-30T15:33:27.016Z,4.45
2019-03-30T15:35:58.936Z,4.60
2019-03-30T15:38:30.927Z,4.83
2019-03-30T15:41:03.040Z,4.33
2019-03-30T15:43:38.522Z,5.12
2019-03-30T15:46:08.775Z,4.80
2019-03-30T15:48:41.245Z,4.60
2019-03-30T15:51:13.329Z,4.95
2019-03-30T15:53:48.158Z,4.40
2019-03-30T15:56:21.055Z,4.03
2019-03-30T15:58:53.086Z,4.65
2019-03-30T16:01:25.152Z,3.92
2019-03-30T16:03:57.283Z,4.10
2019-03-30T16:06:29.374Z,3.50
2019-03-30T16:09:01.271Z,4.00
2019-03-30T16:11:35.142Z,4.08
2019-03-30T16:14:07.170Z,4.08
2019-03-30T16:16:39.337Z,3.67
2019-03-30T16:19:11.232Z,3.72
2019-03-30T16:21:56.043Z,3.42
2019-03-30T16:24:30.118Z,4.85
2019-03-30T16:27:01.921Z,4.33
2019-03-30T16:29:34.066Z,4.50
2019-03-30T16:32:06.190Z,4.20
2019-03-30T16:34:38.153Z,3.87
2019-03-30T16:37:13.201Z,3.83
2019-03-30T16:39:45.198Z,4.08
2019-03-30T16:42:17.751Z,4.42
2019-03-30T16:44:50.592Z,3.90
2019-03-30T16:47:23.051Z,4.22
2019-03-30T16:49:55.042Z,4.40
2019-03-30T16:52:27.063Z,4.85
2019-03-30T16:54:59.356Z,4.95
2019-03-30T16:57:42.615Z,4.85
2019-03-30T17:00:07.204Z,4.42
2019-03-30T17:02:39.410Z,4.17
2019-03-30T17:05:11.739Z,4.00
2019-03-30T17:07:43.893Z,4.00
2019-03-30T17:10:16.037Z,4.10
2019-03-30T17:12:47.999Z,4.50
2019-03-30T17:15:20.018Z,4.55
2019-03-30T17:17:52.267Z,4.67
2019-03-30T17:20:24.363Z,4.45
2019-03-30T17:22:58.773Z,4.85
2019-03-30T17:25:30.493Z,4.53
2019-03-30T17:28:02.773Z,4.87
2019-03-30T17:30:34.735Z,5.00
2019-03-30T17:33:07.300Z,4.45
2019-03-30T17:35:39.383Z,4.33
2019-03-30T17:38:11.328Z,4.42
2019-03-30T17:40:43.223Z,4.83
2019-03-30T17:43:15.166Z,5.90
2019-03-30T17:45:47.182Z,5.17
2019-03-30T17:48:19.190Z,5.65
2019-03-30T17:50:51.530Z,5.60
2019-03-30T17:53:23.488Z,6.05
2019-03-30T17:55:55.802Z,5.55
2019-03-30T17:58:28.297Z,5.40
2019-03-30T18:01:00.603Z,5.70
2019-03-30T18:03:32.675Z,6.00
2019-03-30T18:06:04.659Z,5.97
2019-03-30T18:08:37.042Z,5.87
2019-03-30T18:11:09.062Z,6.22
2019-03-30T18:13:41.241Z,5.55
2019-03-30T18:16:13.207Z,6.50
2019-03-30T18:18:45.571Z,6.28
2019-03-30T18:21:17.421Z,6.72
2019-03-30T18:23:49.427Z,6.42
2019-03-30T18:26:22.441Z,6.50
2019-03-30T18:28:54.898Z,7.28
2019-03-30T18:31:27.233Z,6.65
2019-03-30T18:33:59.700Z,6.53
2019-03-30T18:36:33.091Z,7.42
2019-03-30T18:39:09.782Z,7.00
2019-03-30T18:41:40.846Z,8.30
2019-03-30T18:44:12.971Z,8.85
2019-03-30T18:46:45.243Z,8.13
2019-03-30T18:49:17.174Z,7.53
2019-03-30T18:51:49.825Z,7.87
2019-03-30T18:54:27.177Z,7.10
2019-03-30T18:56:59.893Z,7.83
2019-03-30T18:59:32.227Z,7.70
2019-03-30T19:02:04.809Z,9.10
2019-03-30T19:04:37.239Z,8.53
2019-03-30T19:07:09.634Z,9.60
2019-03-30T19:09:41.650Z,9.38
2019-03-30T19:12:13.578Z,9.68
2019-03-30T19:14:45.503Z,9.38
2019-03-30T19:17:17.409Z,10.32
2019-03-30T19:19:50.164Z,10.68
2019-03-30T19:22:23.230Z,9.58
2019-03-30T19:24:55.382Z,8.63
2019-03-30T19:27:27.700Z,8.70
2019-03-30T19:29:59.883Z,8.63
2019-03-30T19:32:31.969Z,9.73
2019-03-30T19:35:04.406Z,9.23
2019-03-30T19:37:37.190Z,8.85
2019-03-30T19:40:09.479Z,7.33
2019-03-30T19:42:41.557Z,8.18
2019-03-30T19:45:13.944Z,8.75
2019-03-30T19:47:45.882Z,9.38
2019-03-30T19:50:17.901Z,9.35
2019-03-30T19:52:50.223Z,9.65
2019-03-30T19:55:22.621Z,9.33
2019-03-30T19:57:54.695Z,8.83
2019-03-30T20:00:26.718Z,10.60
2019-03-30T20:02:59.558Z,10.78
2019-03-30T20:05:32.054Z,11.45
2019-03-30T20:08:11.996Z,11.73
2019-03-30T20:10:38.409Z,11.73
2019-03-30T20:13:10.458Z,12.15
2019-03-30T20:15:42.555Z,14.07
2019-03-30T20:18:14.558Z,13.95
2019-03-30T20:20:46.498Z,10.18
2019-03-30T20:23:18.409Z,10.68
2019-03-30T20:25:50.822Z,11.12
2019-03-30T20:28:22.760Z,8.73
2019-03-30T20:30:54.896Z,8.48
2019-03-30T20:33:26.882Z,8.93
2019-03-30T20:35:58.779Z,8.45
2019-03-30T20:38:30.946Z,8.08
2019-03-30T20:41:03.529Z,7.58
2019-03-30T20:43:35.669Z,8.93
2019-03-30T20:46:08.002Z,9.43
2019-03-30T20:48:40.765Z,12.60
2019-03-30T20:51:12.762Z,10.78
2019-03-30T20:53:44.604Z,10.32
2019-03-30T20:56:16.604Z,10.10
2019-03-30T20:58:48.608Z,8.88
2019-03-30T21:01:21.033Z,8.73
2019-03-30T21:03:53.777Z,9.55
2019-03-30T21:06:26.284Z,9.15
2019-03-30T21:08:58.380Z,9.08
2019-03-30T21:11:31.541Z,8.50
2019-03-30T21:14:03.653Z,8.70
2019-03-30T21:16:35.742Z,8.38
2019-03-30T21:19:07.762Z,9.48
2019-03-30T21:21:39.857Z,10.20
2019-03-30T21:24:11.832Z,8.90
2019-03-30T21:26:44.742Z,8.60
2019-03-30T21:29:16.964Z,8.98
2019-03-30T21:31:49.473Z,9.35
2019-03-30T21:34:21.396Z,8.83
2019-03-30T21:36:53.461Z,10.93
2019-03-30T21:39:25.564Z,9.55
2019-03-30T21:41:57.554Z,9.75
2019-03-30T21:44:29.934Z,10.43
2019-03-30T21:47:01.907Z,10.75
2019-03-30T21:49:35.393Z,9.85
2019-03-30T21:52:07.370Z,9.45
2019-03-30T21:54:39.403Z,9.90
2019-03-30T21:57:11.394Z,10.15
2019-03-30T21:59:44.165Z,10.55
2019-03-30T22:02:16.056Z,9.85
2019-03-30T22:04:48.127Z,9.90
2019-03-30T22:07:20.166Z,11.08
2019-03-30T22:09:52.398Z,10.20
2019-03-30T22:12:24.463Z,10.05
2019-03-30T22:14:56.638Z,10.32
2019-03-30T22:17:29.022Z,9.65
2019-03-30T22:20:00.870Z,8.98
2019-03-30T22:22:32.787Z,10.40
2019-03-30T22:25:04.874Z,9.33
2019-03-30T22:27:37.124Z,9.33
2019-03-30T22:30:23.651Z,9.70
2019-03-30T22:32:43.316Z,9.30
2019-03-30T22:35:15.408Z,10.03
2019-03-30T22:37:47.463Z,9.53
2019-03-30T22:40:19.594Z,9.43
2019-03-30T22:42:51.490Z,10.72
2019-03-30T22:45:24.261Z,9.63
2019-03-30T22:47:56.353Z,9.53
2019-03-30T22:50:28.721Z,9.93
2019-03-30T22:53:00.677Z,10.10
2019-03-30T22:55:33.123Z,10.72
2019-03-30T22:58:05.090Z,9.00
2019-03-30T23:01:11.127Z,10.15
2019-03-30T23:03:45.558Z,11.18
2019-03-30T23:06:18.528Z,9.53
2019-03-30T23:08:51.577Z,9.55
2019-03-30T23:11:23.486Z,9.13
2019-03-30T23:13:55.813Z,9.78
2019-03-30T23:16:27.894Z,8.15
2019-03-30T23:19:00.146Z,9.25
2019-03-30T23:21:32.172Z,8.63
2019-03-30T23:24:05.192Z,9.65
2019-03-30T23:26:37.174Z,9.50
2019-03-30T23:29:09.184Z,9.48
2019-03-30T23:31:41.229Z,9.60
2019-03-30T23:34:13.454Z,9.38
2019-03-30T23:36:45.532Z,8.85
2019-03-30T23:39:17.921Z,9.13
2019-03-30T23:41:50.336Z,8.68
2019-03-30T23:44:22.231Z,9.00
2019-03-30T23:46:54.143Z,9.45
2019-03-30T23:49:26.067Z,8.88
2019-03-30T23:51:58.166Z,9.13
2019-03-30T23:54:42.278Z,9.68
2019-03-30T23:57:14.852Z,9.08
2019-03-30T23:59:47.105Z,8.20
